Catherine Desgagnes — VOWN — position and weather

sailwx.info

Track history (hours):
 
Tides and Currents Weather Stations Pressure Air Temp Water Temp Dewpoint Dewpoint Depression Visibility Wind Speed Wind Dir Waves Ship Positions

Catherine Desgagnes

Last reported at 2014-Dec-17 16:18 UTC. Time now 2014-Dec-18 05:42 UTC.
Position N 47°35' W 052°56'.

Length 125 m; draft 8.1 m.

Type: Ship. MMSI: 316001203.

Date/timePositionNaut miles runAvg speedWind from/ knotsBaromVisibWave heightAir tempDewpointWater temp
2014-Dec-17 16:18N 47°35' W 052°56'13 4.7
2014-Dec-17 13:31N 47°37' W 052°37'1110.9
2014-Dec-17 12:32N 47°26' W 052°36'  
2014-Dec-13 20:23N 46°31' W 072°13'1113.1
2014-Dec-13 19:33N 46°24' W 072°24'1212.3
2014-Dec-13 18:33N 46°16' W 072°38'1313.3
2014-Dec-13 17:33N 46°10' W 072°56'55 7.7
2014-Dec-13 10:25N 45°24' W 073°38'5 6.0
2014-Dec-13 09:33N 45°24' W 073°45'9 8.6
2014-Dec-13 08:33N 45°19' W 073°55'1 0.9
2014-Dec-13 07:33N 45°18' W 073°56'0 0.4
2014-Dec-13 06:33N 45°18' W 073°56'6 6.3
2014-Dec-13 05:33N 45°13' W 074°02'  
2014-Dec-08 12:33N 45°41' W 084°15'1312.6
2014-Dec-08 11:33N 45°44' W 084°32'1312.7
2014-Dec-08 10:33N 45°49' W 084°49'1313.0
2014-Dec-08 09:33N 45°51' W 085°07'1313.0
2014-Dec-08 08:33N 45°53' W 085°26'1312.8
2014-Dec-08 07:33N 45°52' W 085°44'1313.1
2014-Dec-08 06:33N 45°45' W 086°00'  
Track history (hours):
 
Tides and Currents Weather Stations Pressure Air Temp Water Temp Dewpoint Dewpoint Depression Visibility Wind Speed Wind Dir Waves Ship Positions

Catherine Desgagnes

Last reported at 2014-Dec-17 16:18 UTC. Time now 2014-Dec-18 05:42 UTC.
Position N 47°35' W 052°56'.

Length 125 m; draft 8.1 m.

Type: Ship. MMSI: 316001203.

Date/timePositionNaut miles runAvg speedWind from/ knotsBaromVisibWave heightAir tempDewpointWater temp
2014-Dec-17 16:18N 47°35' W 052°56'13 4.7
2014-Dec-17 13:31N 47°37' W 052°37'1110.9
2014-Dec-17 12:32N 47°26' W 052°36'  
2014-Dec-13 20:23N 46°31' W 072°13'1113.1
2014-Dec-13 19:33N 46°24' W 072°24'1212.3
2014-Dec-13 18:33N 46°16' W 072°38'1313.3
2014-Dec-13 17:33N 46°10' W 072°56'55 7.7
2014-Dec-13 10:25N 45°24' W 073°38'5 6.0
2014-Dec-13 09:33N 45°24' W 073°45'9 8.6
2014-Dec-13 08:33N 45°19' W 073°55'1 0.9
2014-Dec-13 07:33N 45°18' W 073°56'0 0.4
2014-Dec-13 06:33N 45°18' W 073°56'6 6.3
2014-Dec-13 05:33N 45°13' W 074°02'  
2014-Dec-08 12:33N 45°41' W 084°15'1312.6
2014-Dec-08 11:33N 45°44' W 084°32'1312.7
2014-Dec-08 10:33N 45°49' W 084°49'1313.0
2014-Dec-08 09:33N 45°51' W 085°07'1313.0
2014-Dec-08 08:33N 45°53' W 085°26'1312.8
2014-Dec-08 07:33N 45°52' W 085°44'1313.1
2014-Dec-08 06:33N 45°45' W 086°00'  

Dump ship's entire track history